createdAt,value
2022-08-28T00:02:02.713Z,53.20
2022-08-28T00:04:30.201Z,52.65
2022-08-28T00:06:57.822Z,44.80
2022-08-28T00:09:25.434Z,50.83
2022-08-28T00:11:52.981Z,53.60
2022-08-28T00:14:21.373Z,63.75
2022-08-28T00:16:50.027Z,50.20
2022-08-28T00:19:18.830Z,54.42
2022-08-28T00:24:14.261Z,52.05
2022-08-28T00:27:00.271Z,41.45
2022-08-28T00:29:28.463Z,46.97
2022-08-28T00:31:56.032Z,45.03
2022-08-28T00:34:28.506Z,46.70
2022-08-28T00:37:00.982Z,36.35
2022-08-28T00:39:28.400Z,58.42
2022-08-28T00:41:57.950Z,48.55
2022-08-28T00:44:28.337Z,49.63
2022-08-28T00:46:58.628Z,44.65
2022-08-28T00:49:33.369Z,48.10
2022-08-28T00:52:08.289Z,40.70
2022-08-28T00:54:59.511Z,45.45
2022-08-28T00:57:41.671Z,49.50
2022-08-28T01:00:15.863Z,41.20
2022-08-28T01:02:43.479Z,43.63
2022-08-28T01:05:12.886Z,46.10
2022-08-28T01:07:40.430Z,39.95
2022-08-28T01:10:11.464Z,56.58
2022-08-28T01:12:39.398Z,49.40
2022-08-28T01:15:11.811Z,45.40
2022-08-28T01:17:48.525Z,45.25
2022-08-28T01:20:22.511Z,42.85
2022-08-28T01:23:33.842Z,51.85
2022-08-28T01:26:01.101Z,38.88
2022-08-28T01:28:28.582Z,38.88
2022-08-28T01:30:58.403Z,45.67
2022-08-28T01:33:28.295Z,60.20
2022-08-28T01:35:55.747Z,40.10
2022-08-28T01:38:26.902Z,46.20
2022-08-28T01:40:56.849Z,53.30
2022-08-28T01:43:26.232Z,50.60
2022-08-28T01:46:00.350Z,49.75
2022-08-28T01:48:31.008Z,54.83
2022-08-28T01:50:58.537Z,41.15
2022-08-28T01:53:32.685Z,55.22
2022-08-28T01:56:04.816Z,47.85
2022-08-28T01:58:37.451Z,48.53
2022-08-28T02:01:18.328Z,48.20
2022-08-28T02:03:46.147Z,77.00
2022-08-28T02:06:15.373Z,50.90
2022-08-28T02:08:42.665Z,58.75
2022-08-28T02:11:11.604Z,46.58
2022-08-28T02:13:39.971Z,49.28
2022-08-28T02:16:09.906Z,57.45
2022-08-28T02:18:38.511Z,67.38
2022-08-28T02:21:07.430Z,71.45
2022-08-28T02:26:02.704Z,55.88
2022-08-28T02:28:30.361Z,56.20
2022-08-28T02:30:58.003Z,64.75
2022-08-28T02:33:25.655Z,68.68
2022-08-28T02:35:52.862Z,63.67
2022-08-28T02:38:20.071Z,62.40
2022-08-28T02:40:47.473Z,48.50
2022-08-28T02:43:14.687Z,44.55
2022-08-28T02:45:41.839Z,51.38
2022-08-28T02:48:17.143Z,41.33
2022-08-28T02:50:45.876Z,38.00
2022-08-28T02:53:13.773Z,40.97
2022-08-28T02:55:40.926Z,34.38
2022-08-28T02:58:08.923Z,44.55
2022-08-28T03:00:36.056Z,54.37
2022-08-28T03:03:03.256Z,73.65
2022-08-28T03:05:30.443Z,84.55
2022-08-28T03:07:57.554Z,99.32
2022-08-28T03:10:24.700Z,89.80
2022-08-28T03:12:52.798Z,63.17
2022-08-28T03:15:20.221Z,85.57
2022-08-28T03:17:48.098Z,63.92
2022-08-28T03:20:16.024Z,58.42
2022-08-28T03:23:01.712Z,53.83
2022-08-28T03:25:29.355Z,58.55
2022-08-28T03:27:56.477Z,64.18
2022-08-28T03:30:24.295Z,60.50
2022-08-28T03:32:51.520Z,54.78
2022-08-28T03:35:19.703Z,51.75
2022-08-28T03:37:46.884Z,54.65
2022-08-28T03:40:14.499Z,52.63
2022-08-28T03:42:41.609Z,48.67
2022-08-28T03:45:11.108Z,33.00
2022-08-28T03:47:41.122Z,40.95
2022-08-28T03:50:12.131Z,36.20
2022-08-28T03:52:40.604Z,36.33
2022-08-28T03:55:11.562Z,45.43
2022-08-28T03:57:39.271Z,47.78
2022-08-28T04:00:11.200Z,28.88
2022-08-28T04:02:42.695Z,30.27
2022-08-28T04:05:10.639Z,35.08
2022-08-28T04:07:39.408Z,37.50
2022-08-28T04:10:07.644Z,29.27
2022-08-28T04:12:36.388Z,25.98
2022-08-28T04:15:06.423Z,28.65
2022-08-28T04:17:36.272Z,52.30
2022-08-28T04:20:04.440Z,38.78
2022-08-28T04:22:32.323Z,39.95
2022-08-28T04:24:59.775Z,28.92
2022-08-28T04:27:26.971Z,48.88
2022-08-28T04:29:54.136Z,44.30
2022-08-28T04:32:22.661Z,56.42
2022-08-28T04:34:50.426Z,40.70
2022-08-28T04:37:18.390Z,36.22
2022-08-28T04:39:45.510Z,39.28
2022-08-28T04:42:14.267Z,30.38
2022-08-28T04:44:41.703Z,37.75
2022-08-28T04:47:09.016Z,41.65
2022-08-28T04:49:37.520Z,31.77
2022-08-28T04:52:05.149Z,32.97
2022-08-28T04:54:35.693Z,32.83
2022-08-28T04:57:02.961Z,33.80
2022-08-28T04:59:34.176Z,24.63
2022-08-28T05:02:01.485Z,35.97
2022-08-28T05:04:29.039Z,28.33
2022-08-28T05:06:56.255Z,37.83
2022-08-28T05:09:23.430Z,23.65
2022-08-28T05:11:52.825Z,27.73
2022-08-28T05:14:21.161Z,27.23
2022-08-28T05:19:19.589Z,29.10
2022-08-28T05:21:48.524Z,23.77
2022-08-28T05:24:16.178Z,29.15
2022-08-28T05:26:43.725Z,21.77
2022-08-28T05:29:16.237Z,35.85
2022-08-28T05:31:43.691Z,35.25
2022-08-28T05:34:11.331Z,26.45
2022-08-28T05:36:38.908Z,15.37
2022-08-28T05:39:11.726Z,29.40
2022-08-28T05:41:42.623Z,30.75
2022-08-28T05:44:12.946Z,24.60
2022-08-28T05:46:44.111Z,32.45
2022-08-28T05:49:12.821Z,40.38
2022-08-28T05:51:42.176Z,24.70
2022-08-28T05:54:10.635Z,35.70
2022-08-28T05:56:40.208Z,38.60
2022-08-28T05:59:09.418Z,32.33
2022-08-28T06:01:42.591Z,32.67
2022-08-28T06:04:17.774Z,35.83
2022-08-28T06:06:46.178Z,20.35
2022-08-28T06:09:25.339Z,19.63
2022-08-28T06:11:58.896Z,37.92
2022-08-28T06:14:27.082Z,29.83
2022-08-28T06:16:56.569Z,28.58
2022-08-28T06:19:26.682Z,27.33
2022-08-28T06:21:56.733Z,33.47
2022-08-28T06:24:25.287Z,29.13
2022-08-28T06:26:52.504Z,35.55
2022-08-28T06:32:00.320Z,26.50
2022-08-28T06:34:28.871Z,33.45
2022-08-28T06:36:56.188Z,32.47
2022-08-28T06:39:23.716Z,34.42
2022-08-28T06:41:51.055Z,28.02
2022-08-28T06:44:20.691Z,39.20
2022-08-28T06:46:51.939Z,34.83
2022-08-28T06:49:19.830Z,40.33
2022-08-28T06:51:47.080Z,33.40
2022-08-28T06:54:21.838Z,30.33
2022-08-28T06:56:51.150Z,34.30
2022-08-28T06:59:18.934Z,43.90
2022-08-28T07:01:46.322Z,37.35
2022-08-28T07:06:53.014Z,32.97
2022-08-28T07:09:23.520Z,39.53
2022-08-28T07:11:51.117Z,37.72
2022-08-28T07:14:18.405Z,40.70
2022-08-28T07:19:12.984Z,22.50
2022-08-28T07:21:43.791Z,36.08
2022-08-28T07:24:13.997Z,29.35
2022-08-28T07:26:43.095Z,43.58
2022-08-28T07:29:11.730Z,44.75
2022-08-28T07:31:48.471Z,36.10
2022-08-28T07:34:20.036Z,33.50
2022-08-28T07:36:47.854Z,39.35
2022-08-28T07:39:15.584Z,30.55
2022-08-28T07:41:43.230Z,46.00
2022-08-28T07:44:32.156Z,32.08
2022-08-28T07:47:03.456Z,33.00
2022-08-28T07:49:33.067Z,31.98
2022-08-28T07:52:00.833Z,24.10
2022-08-28T07:54:27.979Z,33.38
2022-08-28T07:56:55.128Z,38.00
2022-08-28T07:59:22.317Z,55.42
2022-08-28T08:01:51.604Z,31.17
2022-08-28T08:04:21.352Z,45.20
2022-08-28T08:06:53.410Z,36.10
2022-08-28T08:09:25.521Z,42.05
2022-08-28T08:11:53.080Z,30.08
2022-08-28T08:14:20.240Z,36.20
2022-08-28T08:16:48.894Z,21.52
2022-08-28T08:19:16.832Z,33.20
2022-08-28T08:21:54.875Z,34.58
2022-08-28T08:24:25.508Z,39.20
2022-08-28T08:27:00.058Z,32.28
2022-08-28T08:29:35.056Z,50.60
2022-08-28T08:32:07.327Z,38.33
2022-08-28T08:34:40.644Z,43.70
2022-08-28T08:37:08.765Z,42.78
2022-08-28T08:42:19.889Z,58.72
2022-08-28T08:44:51.354Z,46.75
2022-08-28T08:48:00.210Z,40.58
2022-08-28T08:50:34.739Z,39.03
2022-08-28T08:53:57.440Z,49.83
2022-08-28T08:56:24.615Z,28.58
2022-08-28T08:59:07.348Z,31.58
2022-08-28T09:01:46.230Z,24.63
2022-08-28T09:04:16.066Z,29.30
2022-08-28T09:07:15.161Z,29.60
2022-08-28T09:09:56.989Z,20.65
2022-08-28T09:12:34.600Z,27.88
2022-08-28T09:15:09.218Z,16.02
2022-08-28T09:17:47.174Z,23.92
2022-08-28T09:20:32.909Z,31.23
2022-08-28T09:23:02.074Z,34.05
2022-08-28T09:25:44.332Z,31.23
2022-08-28T09:28:37.354Z,31.08
2022-08-28T09:31:15.283Z,20.00
2022-08-28T09:33:50.662Z,21.23
2022-08-28T09:36:32.706Z,33.78
2022-08-28T09:39:18.147Z,21.48
2022-08-28T09:42:22.012Z,32.33
2022-08-28T09:44:59.816Z,40.42
2022-08-28T09:47:51.681Z,15.77
2022-08-28T09:50:41.799Z,30.95
2022-08-28T09:53:08.824Z,21.77
2022-08-28T09:55:52.988Z,29.60
2022-08-28T09:58:22.753Z,24.70
2022-08-28T10:01:02.312Z,22.52
2022-08-28T10:03:59.201Z,14.30
2022-08-28T10:06:32.443Z,25.20
2022-08-28T10:09:36.729Z,20.23
2022-08-28T10:12:03.917Z,20.67
2022-08-28T10:15:15.366Z,14.77
2022-08-28T10:18:28.825Z,16.25
2022-08-28T10:20:58.635Z,18.70
2022-08-28T10:24:00.340Z,18.23
2022-08-28T10:26:38.331Z,22.80
2022-08-28T10:29:44.696Z,18.92
2022-08-28T10:32:36.993Z,17.85
2022-08-28T10:35:19.135Z,26.20
2022-08-28T10:38:47.262Z,22.80
2022-08-28T10:41:33.191Z,23.95
2022-08-28T10:44:03.340Z,20.70
2022-08-28T10:46:45.787Z,18.60
2022-08-28T10:49:30.919Z,14.50
2022-08-28T10:52:12.776Z,19.30
2022-08-28T10:55:18.433Z,18.83
2022-08-28T10:58:01.975Z,22.35
2022-08-28T11:00:29.631Z,20.48
2022-08-28T11:03:05.820Z,21.90
2022-08-28T11:05:52.454Z,22.15
2022-08-28T11:11:05.743Z,15.73
2022-08-28T11:13:51.642Z,15.23
2022-08-28T11:16:47.151Z,20.20
2022-08-28T11:19:32.959Z,24.65
2022-08-28T11:22:17.365Z,23.40
2022-08-28T11:25:01.743Z,24.65
2022-08-28T11:27:35.339Z,16.42
2022-08-28T11:30:08.322Z,28.45
2022-08-28T11:32:56.268Z,17.90
2022-08-28T11:35:29.480Z,16.15
2022-08-28T11:37:57.971Z,18.45
2022-08-28T11:40:28.029Z,12.90
2022-08-28T11:43:14.006Z,17.33
2022-08-28T11:45:46.677Z,18.65
2022-08-28T11:48:33.274Z,27.40
2022-08-28T11:51:17.674Z,26.98
2022-08-28T11:54:26.789Z,19.65
2022-08-28T11:57:21.800Z,18.48
2022-08-28T12:00:10.888Z,18.08
2022-08-28T12:03:24.866Z,15.32
2022-08-28T12:05:56.317Z,19.95
2022-08-28T12:08:48.245Z,23.10
2022-08-28T12:11:40.287Z,12.55
2022-08-28T12:14:32.770Z,25.25
2022-08-28T12:17:03.073Z,21.25
2022-08-28T12:19:57.979Z,18.02
2022-08-28T12:22:52.976Z,9.82
2022-08-28T12:25:26.395Z,22.98
2022-08-28T12:27:56.085Z,15.77
2022-08-28T12:30:41.600Z,13.07
2022-08-28T12:33:33.454Z,9.45
2022-08-28T12:36:03.734Z,19.55
2022-08-28T12:38:33.279Z,14.60
2022-08-28T12:41:02.195Z,16.02
2022-08-28T12:43:46.607Z,23.98
2022-08-28T12:46:29.269Z,18.42
2022-08-28T12:48:59.920Z,19.75
2022-08-28T12:51:34.706Z,20.63
2022-08-28T12:54:06.461Z,12.90
2022-08-28T12:56:37.170Z,12.18
2022-08-28T12:59:31.828Z,7.70
2022-08-28T13:02:33.104Z,13.35
2022-08-28T13:05:06.017Z,15.70
2022-08-28T13:07:48.245Z,24.52
2022-08-28T13:10:23.441Z,16.23
2022-08-28T13:13:04.694Z,13.05
2022-08-28T13:15:45.599Z,20.73
2022-08-28T13:18:41.514Z,14.18
2022-08-28T13:21:17.469Z,13.18
2022-08-28T13:24:00.723Z,17.77
2022-08-28T13:26:37.080Z,13.70
2022-08-28T13:29:21.388Z,16.23
2022-08-28T13:32:07.672Z,24.50
2022-08-28T13:34:37.609Z,15.45
2022-08-28T13:37:14.811Z,20.80
2022-08-28T13:39:47.401Z,19.90
2022-08-28T13:42:17.296Z,19.67
2022-08-28T13:44:55.336Z,15.90
2022-08-28T13:47:22.818Z,12.95
2022-08-28T13:49:49.912Z,18.60
2022-08-28T13:52:17.231Z,20.40
2022-08-28T13:54:45.439Z,16.88
2022-08-28T13:57:13.711Z,27.30
2022-08-28T14:02:31.360Z,20.17
2022-08-28T14:04:59.713Z,16.48
2022-08-28T14:07:28.675Z,13.85
2022-08-28T14:09:56.627Z,13.35
2022-08-28T14:12:31.339Z,13.15
2022-08-28T14:15:02.095Z,24.58
2022-08-28T14:17:29.361Z,12.52
2022-08-28T14:19:56.938Z,22.55
2022-08-28T14:22:24.036Z,17.17
2022-08-28T14:24:51.634Z,19.33
2022-08-28T14:27:18.838Z,10.70
2022-08-28T14:29:46.051Z,17.63
2022-08-28T14:32:13.183Z,25.30
2022-08-28T14:34:40.720Z,14.83
2022-08-28T14:37:07.816Z,26.20
2022-08-28T14:39:35.170Z,15.87
2022-08-28T14:42:05.025Z,16.90
2022-08-28T14:44:40.115Z,14.43
2022-08-28T14:47:07.375Z,18.37
2022-08-28T14:49:34.512Z,18.60
2022-08-28T14:52:01.724Z,17.92
2022-08-28T14:54:28.909Z,7.83
2022-08-28T14:56:56.481Z,15.70
2022-08-28T14:59:28.043Z,14.35
2022-08-28T15:01:59.398Z,10.85
2022-08-28T15:04:33.956Z,15.75
2022-08-28T15:07:05.799Z,8.23
2022-08-28T15:09:39.736Z,21.38
2022-08-28T15:12:07.555Z,19.15
2022-08-28T15:14:35.707Z,11.98
2022-08-28T15:17:03.488Z,19.80
2022-08-28T15:19:31.001Z,14.98
2022-08-28T15:21:58.638Z,25.05
2022-08-28T15:24:30.766Z,13.82
2022-08-28T15:26:59.019Z,13.82
2022-08-28T15:29:28.533Z,14.55
2022-08-28T15:31:57.312Z,15.73
2022-08-28T15:34:27.725Z,18.83
2022-08-28T15:36:56.948Z,19.27
2022-08-28T15:39:44.873Z,20.85
2022-08-28T15:42:12.752Z,20.48
2022-08-28T15:44:40.002Z,16.20
2022-08-28T15:47:07.758Z,18.27
2022-08-28T15:49:43.686Z,26.13
2022-08-28T15:52:18.517Z,32.97
2022-08-28T15:54:46.666Z,15.48
2022-08-28T15:59:49.841Z,18.45
2022-08-28T16:02:21.343Z,24.17
2022-08-28T16:04:48.764Z,21.92
2022-08-28T16:07:17.365Z,12.10
2022-08-28T16:09:45.747Z,10.35
2022-08-28T16:12:13.223Z,15.52
2022-08-28T16:14:40.474Z,12.00
2022-08-28T16:17:11.068Z,18.30
2022-08-28T16:19:40.217Z,8.95
2022-08-28T16:22:09.917Z,20.52
2022-08-28T16:24:37.531Z,27.02
2022-08-28T16:27:06.399Z,28.83
2022-08-28T16:29:37.085Z,24.90
2022-08-28T16:32:04.976Z,22.85
2022-08-28T16:34:33.093Z,24.25
2022-08-28T16:39:27.738Z,22.63
2022-08-28T16:41:54.925Z,30.33
2022-08-28T16:44:27.241Z,27.43
2022-08-28T16:46:55.412Z,38.05
2022-08-28T16:49:23.760Z,26.58
2022-08-28T16:51:51.059Z,26.50
2022-08-28T16:54:20.199Z,20.48
2022-08-28T16:56:47.734Z,28.65
2022-08-28T16:59:19.948Z,26.85
2022-08-28T17:01:53.720Z,30.05
2022-08-28T17:04:22.357Z,31.70
2022-08-28T17:06:49.703Z,28.20
2022-08-28T17:09:16.824Z,30.00
2022-08-28T17:11:51.724Z,27.17
2022-08-28T17:14:23.250Z,29.80
2022-08-28T17:16:51.197Z,30.40
2022-08-28T17:19:20.180Z,43.35
2022-08-28T17:22:06.095Z,48.38
2022-08-28T17:24:33.317Z,45.20
2022-08-28T17:27:05.168Z,38.03
2022-08-28T17:29:38.136Z,37.65
2022-08-28T17:32:07.204Z,35.45
2022-08-28T17:34:35.383Z,31.65
2022-08-28T17:39:30.446Z,42.85
2022-08-28T17:41:57.694Z,37.25
2022-08-28T17:44:25.394Z,33.35
2022-08-28T17:46:52.798Z,34.60
2022-08-28T17:49:20.109Z,21.20
2022-08-28T17:51:47.422Z,34.33
2022-08-28T17:54:20.804Z,20.97
2022-08-28T17:56:49.172Z,11.95
2022-08-28T17:59:16.585Z,27.73
2022-08-28T18:01:45.817Z,27.70
2022-08-28T18:04:17.984Z,32.53
2022-08-28T18:06:50.974Z,28.88
2022-08-28T18:09:18.342Z,25.98
2022-08-28T18:11:45.517Z,42.87
2022-08-28T18:14:12.810Z,28.42
2022-08-28T18:16:40.198Z,35.50
2022-08-28T18:19:10.743Z,44.23
2022-08-28T18:21:39.697Z,36.88
2022-08-28T18:24:08.233Z,31.90
2022-08-28T18:26:36.103Z,30.25
2022-08-28T18:29:03.729Z,25.63
2022-08-28T18:31:31.357Z,28.15
2022-08-28T18:33:59.207Z,24.25
2022-08-28T18:36:26.689Z,25.27
2022-08-28T18:38:54.016Z,27.50
2022-08-28T18:41:21.716Z,23.13
2022-08-28T18:43:55.715Z,24.23
2022-08-28T18:46:25.135Z,31.33
2022-08-28T18:48:56.093Z,26.98
2022-08-28T18:51:23.503Z,32.13
2022-08-28T18:53:50.980Z,36.50
2022-08-28T18:56:18.374Z,41.67
2022-08-28T18:58:45.660Z,22.77
2022-08-28T19:01:12.969Z,25.15
2022-08-28T19:03:40.141Z,31.13
2022-08-28T19:06:07.577Z,31.13
2022-08-28T19:08:37.126Z,26.10
2022-08-28T19:11:12.724Z,14.68
2022-08-28T19:13:41.172Z,20.58
2022-08-28T19:18:36.077Z,26.63
2022-08-28T19:21:09.991Z,17.05
2022-08-28T19:23:49.864Z,32.25
2022-08-28T19:26:27.267Z,29.25
2022-08-28T19:28:55.166Z,40.15
2022-08-28T19:31:26.671Z,34.53
2022-08-28T19:33:54.716Z,21.55
2022-08-28T19:36:21.965Z,26.25
2022-08-28T19:38:49.557Z,27.25
2022-08-28T19:41:17.165Z,14.55
2022-08-28T19:43:44.866Z,22.27
2022-08-28T19:46:19.591Z,32.03
2022-08-28T19:48:49.723Z,26.45
2022-08-28T19:51:22.895Z,22.17
2022-08-28T19:53:57.324Z,19.40
2022-08-28T19:56:31.798Z,22.85
2022-08-28T19:59:02.532Z,32.08
2022-08-28T20:01:37.602Z,22.83
2022-08-28T20:04:07.866Z,20.23
2022-08-28T20:06:36.120Z,25.27
2022-08-28T20:09:07.356Z,20.73
2022-08-28T20:11:38.350Z,36.20
2022-08-28T20:14:05.972Z,30.70
2022-08-28T20:16:38.100Z,26.80
2022-08-28T20:19:07.242Z,40.00
2022-08-28T20:21:37.925Z,35.97
2022-08-28T20:24:13.379Z,44.88
2022-08-28T20:26:40.858Z,31.05
2022-08-28T20:29:09.657Z,26.77
2022-08-28T20:31:44.833Z,35.13
2022-08-28T20:34:14.523Z,38.00
2022-08-28T20:36:41.786Z,26.35
2022-08-28T20:39:09.538Z,24.55
2022-08-28T20:41:39.068Z,35.47
2022-08-28T20:44:09.081Z,25.85
2022-08-28T20:46:40.785Z,28.35
2022-08-28T20:49:11.050Z,30.73
2022-08-28T20:52:00.327Z,33.75
2022-08-28T20:54:30.647Z,33.22
2022-08-28T20:57:01.859Z,41.65
2022-08-28T20:59:37.174Z,42.92
2022-08-28T21:02:33.368Z,47.05
2022-08-28T21:05:01.265Z,48.65
2022-08-28T21:07:28.681Z,41.70
2022-08-28T21:10:07.148Z,46.30
2022-08-28T21:12:37.316Z,26.95
2022-08-28T21:15:11.915Z,35.50
2022-08-28T21:17:40.670Z,29.65
2022-08-28T21:20:13.637Z,29.95
2022-08-28T21:22:41.479Z,28.05
2022-08-28T21:25:10.689Z,26.70
2022-08-28T21:27:38.591Z,29.70
2022-08-28T21:30:07.976Z,30.10
2022-08-28T21:32:36.092Z,35.00
2022-08-28T21:35:10.294Z,26.17
2022-08-28T21:37:40.567Z,30.67
2022-08-28T21:40:11.952Z,16.60
2022-08-28T21:42:40.043Z,30.58
2022-08-28T21:45:11.873Z,20.20
2022-08-28T21:47:41.506Z,34.60
2022-08-28T21:50:10.137Z,25.55
2022-08-28T21:55:10.702Z,19.70
2022-08-28T21:57:38.262Z,25.65
2022-08-28T22:00:17.020Z,36.88
2022-08-28T22:02:44.681Z,23.98
2022-08-28T22:05:12.525Z,26.80
2022-08-28T22:07:40.032Z,25.03
2022-08-28T22:10:09.052Z,30.05
2022-08-28T22:12:36.255Z,17.13
2022-08-28T22:15:04.753Z,23.65
2022-08-28T22:17:31.928Z,19.33
2022-08-28T22:19:59.033Z,25.30
2022-08-28T22:22:44.682Z,27.90
2022-08-28T22:25:12.036Z,26.90
2022-08-28T22:27:39.132Z,24.05
2022-08-28T22:30:07.459Z,26.08
2022-08-28T22:32:34.678Z,24.25
2022-08-28T22:35:01.838Z,30.15
2022-08-28T22:37:28.951Z,40.58
2022-08-28T22:39:56.852Z,28.05
2022-08-28T22:42:24.244Z,34.85
2022-08-28T22:44:51.348Z,27.73
2022-08-28T22:47:18.991Z,27.30
2022-08-28T22:49:46.609Z,30.23
2022-08-28T22:52:14.838Z,31.10
2022-08-28T22:54:42.774Z,32.83
2022-08-28T22:57:10.212Z,21.33
2022-08-28T22:59:37.362Z,27.75
2022-08-28T23:02:04.559Z,29.30
2022-08-28T23:04:31.739Z,32.78
2022-08-28T23:06:58.902Z,28.77
2022-08-28T23:09:26.923Z,24.73
2022-08-28T23:11:54.323Z,36.95
2022-08-28T23:14:22.233Z,31.13
2022-08-28T23:16:50.053Z,29.23
2022-08-28T23:19:17.702Z,26.45
2022-08-28T23:21:44.740Z,27.58
2022-08-28T23:24:13.868Z,26.33
2022-08-28T23:26:41.494Z,27.38
2022-08-28T23:29:10.061Z,19.10
2022-08-28T23:34:05.429Z,25.65
2022-08-28T23:36:32.788Z,21.65
2022-08-28T23:39:03.976Z,21.35
2022-08-28T23:41:32.869Z,26.15
2022-08-28T23:44:01.058Z,20.05
2022-08-28T23:46:30.436Z,26.98
2022-08-28T23:48:57.783Z,23.08
2022-08-28T23:51:24.965Z,20.30
2022-08-28T23:53:52.447Z,24.73
2022-08-28T23:56:19.588Z,18.83
2022-08-28T23:58:46.676Z,22.60
